sensor_id;sensor_type;location;lat;lon;timestamp;temperature;humidity
11989;DHT22;6054;50.966;7.094;2023-03-01T00:02:17;8.40;37.70
11989;DHT22;6054;50.966;7.094;2023-03-01T00:04:43;8.70;38.00
11989;DHT22;6054;50.966;7.094;2023-03-01T00:07:10;8.30;37.50
11989;DHT22;6054;50.966;7.094;2023-03-01T00:09:37;8.30;37.70
11989;DHT22;6054;50.966;7.094;2023-03-01T00:12:06;8.30;37.50
11989;DHT22;6054;50.966;7.094;2023-03-01T00:14:35;8.30;38.20
11989;DHT22;6054;50.966;7.094;2023-03-01T00:17:02;8.20;37.60
11989;DHT22;6054;50.966;7.094;2023-03-01T00:19:29;8.20;37.60
11989;DHT22;6054;50.966;7.094;2023-03-01T00:21:57;8.20;37.90
11989;DHT22;6054;50.966;7.094;2023-03-01T00:24:24;8.20;38.00
11989;DHT22;6054;50.966;7.094;2023-03-01T00:26:53;8.10;37.90
11989;DHT22;6054;50.966;7.094;2023-03-01T00:29:20;8.10;38.20
11989;DHT22;6054;50.966;7.094;2023-03-01T00:31:49;8.10;38.10
11989;DHT22;6054;50.966;7.094;2023-03-01T00:34:15;8.00;37.90
11989;DHT22;6054;50.966;7.094;2023-03-01T00:36:42;8.00;38.10
11989;DHT22;6054;50.966;7.094;2023-03-01T00:39:11;8.00;38.10
11989;DHT22;6054;50.966;7.094;2023-03-01T00:41:39;8.00;38.50
11989;DHT22;6054;50.966;7.094;2023-03-01T00:44:06;7.90;38.20
11989;DHT22;6054;50.966;7.094;2023-03-01T00:46:33;7.90;38.10
11989;DHT22;6054;50.966;7.094;2023-03-01T00:49:01;7.90;37.90
11989;DHT22;6054;50.966;7.094;2023-03-01T00:51:30;7.80;38.20
11989;DHT22;6054;50.966;7.094;2023-03-01T00:53:58;7.90;38.30
11989;DHT22;6054;50.966;7.094;2023-03-01T00:56:26;7.80;38.50
11989;DHT22;6054;50.966;7.094;2023-03-01T00:58:53;7.80;38.50
11989;DHT22;6054;50.966;7.094;2023-03-01T01:01:21;7.80;38.20
11989;DHT22;6054;50.966;7.094;2023-03-01T01:03:50;7.80;38.70
11989;DHT22;6054;50.966;7.094;2023-03-01T01:06:21;7.70;38.70
11989;DHT22;6054;50.966;7.094;2023-03-01T01:08:48;7.70;38.80
11989;DHT22;6054;50.966;7.094;2023-03-01T01:11:16;7.70;38.60
11989;DHT22;6054;50.966;7.094;2023-03-01T01:13:44;7.70;38.90
11989;DHT22;6054;50.966;7.094;2023-03-01T01:16:12;7.90;39.10
11989;DHT22;6054;50.966;7.094;2023-03-01T01:18:39;7.70;38.90
11989;DHT22;6054;50.966;7.094;2023-03-01T01:21:08;7.60;38.50
11989;DHT22;6054;50.966;7.094;2023-03-01T01:23:38;7.60;38.90
11989;DHT22;6054;50.966;7.094;2023-03-01T01:26:07;7.60;38.90
11989;DHT22;6054;50.966;7.094;2023-03-01T01:28:34;7.50;38.90
11989;DHT22;6054;50.966;7.094;2023-03-01T01:31:01;7.50;38.90
11989;DHT22;6054;50.966;7.094;2023-03-01T01:33:28;7.50;38.50
11989;DHT22;6054;50.966;7.094;2023-03-01T01:35:55;7.50;38.80
11989;DHT22;6054;50.966;7.094;2023-03-01T01:38:21;7.50;38.70
11989;DHT22;6054;50.966;7.094;2023-03-01T01:40:50;7.50;38.70
11989;DHT22;6054;50.966;7.094;2023-03-01T01:43:23;7.50;39.20
11989;DHT22;6054;50.966;7.094;2023-03-01T01:45:51;7.50;39.30
11989;DHT22;6054;50.966;7.094;2023-03-01T01:48:22;7.50;39.30
11989;DHT22;6054;50.966;7.094;2023-03-01T01:50:54;7.40;39.40
11989;DHT22;6054;50.966;7.094;2023-03-01T01:53:22;7.50;39.40
11989;DHT22;6054;50.966;7.094;2023-03-01T01:55:53;7.50;39.50
11989;DHT22;6054;50.966;7.094;2023-03-01T01:58:24;7.50;39.60
11989;DHT22;6054;50.966;7.094;2023-03-01T02:00:53;7.50;39.70
11989;DHT22;6054;50.966;7.094;2023-03-01T02:03:24;7.50;39.60
11989;DHT22;6054;50.966;7.094;2023-03-01T02:05:58;7.40;39.60
11989;DHT22;6054;50.966;7.094;2023-03-01T02:08:27;7.40;39.70
11989;DHT22;6054;50.966;7.094;2023-03-01T02:10:57;7.40;39.80
11989;DHT22;6054;50.966;7.094;2023-03-01T02:13:25;7.40;39.70
11989;DHT22;6054;50.966;7.094;2023-03-01T02:15:52;7.40;39.50
11989;DHT22;6054;50.966;7.094;2023-03-01T02:18:20;7.40;40.20
11989;DHT22;6054;50.966;7.094;2023-03-01T02:20:56;7.40;39.90
11989;DHT22;6054;50.966;7.094;2023-03-01T02:23:25;7.30;40.00
11989;DHT22;6054;50.966;7.094;2023-03-01T02:25:57;7.30;39.60
11989;DHT22;6054;50.966;7.094;2023-03-01T02:28:31;7.30;39.90
11989;DHT22;6054;50.966;7.094;2023-03-01T02:30:58;7.30;40.10
11989;DHT22;6054;50.966;7.094;2023-03-01T02:33:44;7.30;40.00
11989;DHT22;6054;50.966;7.094;2023-03-01T02:36:15;7.30;40.10
11989;DHT22;6054;50.966;7.094;2023-03-01T02:38:44;7.30;40.10
11989;DHT22;6054;50.966;7.094;2023-03-01T02:41:14;7.30;40.00
11989;DHT22;6054;50.966;7.094;2023-03-01T02:43:43;7.30;40.70
11989;DHT22;6054;50.966;7.094;2023-03-01T02:46:16;7.30;39.70
11989;DHT22;6054;50.966;7.094;2023-03-01T02:48:44;7.30;39.90
11989;DHT22;6054;50.966;7.094;2023-03-01T02:51:25;7.30;40.00
11989;DHT22;6054;50.966;7.094;2023-03-01T02:54:01;7.10;40.50
11989;DHT22;6054;50.966;7.094;2023-03-01T02:56:31;7.20;40.00
11989;DHT22;6054;50.966;7.094;2023-03-01T02:58:59;7.20;39.70
11989;DHT22;6054;50.966;7.094;2023-03-01T03:01:28;7.20;39.80
11989;DHT22;6054;50.966;7.094;2023-03-01T03:04:06;7.20;39.70
11989;DHT22;6054;50.966;7.094;2023-03-01T03:06:33;7.20;40.10
11989;DHT22;6054;50.966;7.094;2023-03-01T03:09:00;7.20;39.60
11989;DHT22;6054;50.966;7.094;2023-03-01T03:11:27;7.30;39.70
11989;DHT22;6054;50.966;7.094;2023-03-01T03:13:53;7.40;39.50
11989;DHT22;6054;50.966;7.094;2023-03-01T03:16:22;7.20;39.30
11989;DHT22;6054;50.966;7.094;2023-03-01T03:18:48;7.20;39.40
11989;DHT22;6054;50.966;7.094;2023-03-01T03:21:16;7.20;39.20
11989;DHT22;6054;50.966;7.094;2023-03-01T03:23:43;7.20;39.50
11989;DHT22;6054;50.966;7.094;2023-03-01T03:26:10;7.20;39.20
11989;DHT22;6054;50.966;7.094;2023-03-01T03:28:40;7.20;39.30
11989;DHT22;6054;50.966;7.094;2023-03-01T03:31:08;7.30;39.40
11989;DHT22;6054;50.966;7.094;2023-03-01T03:33:36;7.20;39.30
11989;DHT22;6054;50.966;7.094;2023-03-01T03:36:03;7.20;39.20
11989;DHT22;6054;50.966;7.094;2023-03-01T03:38:30;7.20;39.50
11989;DHT22;6054;50.966;7.094;2023-03-01T03:41:01;7.20;39.40
11989;DHT22;6054;50.966;7.094;2023-03-01T03:43:29;7.20;39.80
11989;DHT22;6054;50.966;7.094;2023-03-01T03:45:56;7.20;39.70
11989;DHT22;6054;50.966;7.094;2023-03-01T03:48:24;7.20;39.60
11989;DHT22;6054;50.966;7.094;2023-03-01T03:50:54;7.20;39.50
11989;DHT22;6054;50.966;7.094;2023-03-01T03:53:22;7.10;39.70
11989;DHT22;6054;50.966;7.094;2023-03-01T03:55:49;7.20;39.70
11989;DHT22;6054;50.966;7.094;2023-03-01T03:58:18;7.20;39.50
11989;DHT22;6054;50.966;7.094;2023-03-01T04:00:47;7.10;39.70
11989;DHT22;6054;50.966;7.094;2023-03-01T04:03:16;7.10;39.80
11989;DHT22;6054;50.966;7.094;2023-03-01T04:05:44;7.10;39.80
11989;DHT22;6054;50.966;7.094;2023-03-01T04:08:13;7.10;39.60
11989;DHT22;6054;50.966;7.094;2023-03-01T04:10:41;7.10;39.50
11989;DHT22;6054;50.966;7.094;2023-03-01T04:13:11;7.10;39.80
11989;DHT22;6054;50.966;7.094;2023-03-01T04:15:38;7.10;39.90
11989;DHT22;6054;50.966;7.094;2023-03-01T04:18:05;7.10;39.80
11989;DHT22;6054;50.966;7.094;2023-03-01T04:20:33;7.00;39.90
11989;DHT22;6054;50.966;7.094;2023-03-01T04:23:02;7.00;39.90
11989;DHT22;6054;50.966;7.094;2023-03-01T04:25:37;7.00;39.90
11989;DHT22;6054;50.966;7.094;2023-03-01T04:28:04;7.00;39.90
11989;DHT22;6054;50.966;7.094;2023-03-01T04:30:31;7.00;39.60
11989;DHT22;6054;50.966;7.094;2023-03-01T04:33:01;7.00;39.80
11989;DHT22;6054;50.966;7.094;2023-03-01T04:35:29;6.90;40.50
11989;DHT22;6054;50.966;7.094;2023-03-01T04:37:55;6.90;39.60
11989;DHT22;6054;50.966;7.094;2023-03-01T04:40:22;6.90;39.60
11989;DHT22;6054;50.966;7.094;2023-03-01T04:42:50;6.90;39.60
11989;DHT22;6054;50.966;7.094;2023-03-01T04:45:17;6.90;39.50
11989;DHT22;6054;50.966;7.094;2023-03-01T04:47:45;6.90;39.60
11989;DHT22;6054;50.966;7.094;2023-03-01T04:50:15;6.90;39.80
11989;DHT22;6054;50.966;7.094;2023-03-01T04:52:43;6.90;39.90
11989;DHT22;6054;50.966;7.094;2023-03-01T04:55:11;6.90;39.90
11989;DHT22;6054;50.966;7.094;2023-03-01T04:57:38;6.80;39.70
11989;DHT22;6054;50.966;7.094;2023-03-01T05:00:10;6.80;39.60
11989;DHT22;6054;50.966;7.094;2023-03-01T05:02:47;6.80;40.00
11989;DHT22;6054;50.966;7.094;2023-03-01T05:05:19;6.80;40.00
11989;DHT22;6054;50.966;7.094;2023-03-01T05:07:46;6.80;40.00
11989;DHT22;6054;50.966;7.094;2023-03-01T05:10:13;6.80;39.70
11989;DHT22;6054;50.966;7.094;2023-03-01T05:12:39;6.80;39.60
11989;DHT22;6054;50.966;7.094;2023-03-01T05:15:09;6.80;39.60
11989;DHT22;6054;50.966;7.094;2023-03-01T05:17:36;6.70;39.80
11989;DHT22;6054;50.966;7.094;2023-03-01T05:20:03;6.70;39.60
11989;DHT22;6054;50.966;7.094;2023-03-01T05:22:33;6.70;39.90
11989;DHT22;6054;50.966;7.094;2023-03-01T05:24:59;6.70;39.60
11989;DHT22;6054;50.966;7.094;2023-03-01T05:27:26;6.70;39.60
11989;DHT22;6054;50.966;7.094;2023-03-01T05:29:55;6.70;39.70
11989;DHT22;6054;50.966;7.094;2023-03-01T05:32:23;6.80;39.80
11989;DHT22;6054;50.966;7.094;2023-03-01T05:34:49;6.70;39.60
11989;DHT22;6054;50.966;7.094;2023-03-01T05:37:17;6.70;39.70
11989;DHT22;6054;50.966;7.094;2023-03-01T05:39:45;6.60;39.50
11989;DHT22;6054;50.966;7.094;2023-03-01T05:42:11;6.60;39.40
11989;DHT22;6054;50.966;7.094;2023-03-01T05:44:38;6.70;39.60
11989;DHT22;6054;50.966;7.094;2023-03-01T05:47:05;6.70;39.70
11989;DHT22;6054;50.966;7.094;2023-03-01T05:49:33;6.60;39.60
11989;DHT22;6054;50.966;7.094;2023-03-01T05:52:00;6.60;39.70
11989;DHT22;6054;50.966;7.094;2023-03-01T05:54:27;6.60;39.60
11989;DHT22;6054;50.966;7.094;2023-03-01T05:56:54;6.60;39.60
11989;DHT22;6054;50.966;7.094;2023-03-01T05:59:21;6.60;39.60
11989;DHT22;6054;50.966;7.094;2023-03-01T06:01:48;6.60;39.60
11989;DHT22;6054;50.966;7.094;2023-03-01T06:04:15;6.60;39.60
11989;DHT22;6054;50.966;7.094;2023-03-01T06:06:43;6.60;39.60
11989;DHT22;6054;50.966;7.094;2023-03-01T06:09:10;6.50;39.60
11989;DHT22;6054;50.966;7.094;2023-03-01T06:11:37;6.50;39.60
11989;DHT22;6054;50.966;7.094;2023-03-01T06:14:04;6.50;39.60
11989;DHT22;6054;50.966;7.094;2023-03-01T06:16:33;6.50;40.50
11989;DHT22;6054;50.966;7.094;2023-03-01T06:19:00;6.50;39.60
11989;DHT22;6054;50.966;7.094;2023-03-01T06:21:26;6.50;39.70
11989;DHT22;6054;50.966;7.094;2023-03-01T06:23:55;6.50;39.70
11989;DHT22;6054;50.966;7.094;2023-03-01T06:26:21;6.60;39.80
11989;DHT22;6054;50.966;7.094;2023-03-01T06:28:48;6.50;39.60
11989;DHT22;6054;50.966;7.094;2023-03-01T06:31:15;6.50;39.80
11989;DHT22;6054;50.966;7.094;2023-03-01T06:33:41;6.50;39.90
11989;DHT22;6054;50.966;7.094;2023-03-01T06:36:10;6.50;39.90
11989;DHT22;6054;50.966;7.094;2023-03-01T06:38:36;6.50;40.00
11989;DHT22;6054;50.966;7.094;2023-03-01T06:41:05;6.50;40.00
11989;DHT22;6054;50.966;7.094;2023-03-01T06:43:32;6.50;39.90
11989;DHT22;6054;50.966;7.094;2023-03-01T06:45:58;6.60;40.10
11989;DHT22;6054;50.966;7.094;2023-03-01T06:48:26;6.60;40.10
11989;DHT22;6054;50.966;7.094;2023-03-01T06:50:53;6.60;40.00
11989;DHT22;6054;50.966;7.094;2023-03-01T06:53:19;6.70;40.10
11989;DHT22;6054;50.966;7.094;2023-03-01T06:55:46;6.60;40.10
11989;DHT22;6054;50.966;7.094;2023-03-01T06:58:14;6.60;40.10
11989;DHT22;6054;50.966;7.094;2023-03-01T07:00:41;6.60;40.10
11989;DHT22;6054;50.966;7.094;2023-03-01T07:03:08;6.60;40.20
11989;DHT22;6054;50.966;7.094;2023-03-01T07:05:35;6.70;40.30
11989;DHT22;6054;50.966;7.094;2023-03-01T07:08:02;6.90;40.50
11989;DHT22;6054;50.966;7.094;2023-03-01T07:10:29;6.70;40.30
11989;DHT22;6054;50.966;7.094;2023-03-01T07:12:56;6.80;40.50
11989;DHT22;6054;50.966;7.094;2023-03-01T07:15:25;6.80;40.70
11989;DHT22;6054;50.966;7.094;2023-03-01T07:17:52;6.80;40.60
11989;DHT22;6054;50.966;7.094;2023-03-01T07:20:20;6.90;40.30
11989;DHT22;6054;50.966;7.094;2023-03-01T07:22:49;6.90;40.70
11989;DHT22;6054;50.966;7.094;2023-03-01T07:25:16;6.90;40.30
11989;DHT22;6054;50.966;7.094;2023-03-01T07:27:43;6.90;40.60
11989;DHT22;6054;50.966;7.094;2023-03-01T07:30:10;7.00;40.80
11989;DHT22;6054;50.966;7.094;2023-03-01T07:32:38;7.00;40.90
11989;DHT22;6054;50.966;7.094;2023-03-01T07:35:06;7.10;40.90
11989;DHT22;6054;50.966;7.094;2023-03-01T07:37:33;7.10;41.20
11989;DHT22;6054;50.966;7.094;2023-03-01T07:39:59;7.20;41.00
11989;DHT22;6054;50.966;7.094;2023-03-01T07:42:26;7.30;41.70
11989;DHT22;6054;50.966;7.094;2023-03-01T07:44:53;7.30;40.90
11989;DHT22;6054;50.966;7.094;2023-03-01T07:47:20;7.40;40.80
11989;DHT22;6054;50.966;7.094;2023-03-01T07:49:48;7.40;40.90
11989;DHT22;6054;50.966;7.094;2023-03-01T07:52:14;7.60;40.90
11989;DHT22;6054;50.966;7.094;2023-03-01T07:54:43;7.60;40.80
11989;DHT22;6054;50.966;7.094;2023-03-01T07:57:10;7.70;41.00
11989;DHT22;6054;50.966;7.094;2023-03-01T07:59:36;7.70;40.80
11989;DHT22;6054;50.966;7.094;2023-03-01T08:02:03;7.80;40.70
11989;DHT22;6054;50.966;7.094;2023-03-01T08:04:30;7.80;40.50
11989;DHT22;6054;50.966;7.094;2023-03-01T08:06:58;7.90;40.40
11989;DHT22;6054;50.966;7.094;2023-03-01T08:09:25;8.00;40.40
11989;DHT22;6054;50.966;7.094;2023-03-01T08:11:51;8.10;40.50
11989;DHT22;6054;50.966;7.094;2023-03-01T08:14:19;8.10;40.40
11989;DHT22;6054;50.966;7.094;2023-03-01T08:16:49;8.20;40.40
11989;DHT22;6054;50.966;7.094;2023-03-01T08:19:15;8.30;40.50
11989;DHT22;6054;50.966;7.094;2023-03-01T08:21:42;8.30;40.20
11989;DHT22;6054;50.966;7.094;2023-03-01T08:24:10;8.40;40.00
11989;DHT22;6054;50.966;7.094;2023-03-01T08:26:37;8.40;39.50
11989;DHT22;6054;50.966;7.094;2023-03-01T08:29:04;8.70;39.90
11989;DHT22;6054;50.966;7.094;2023-03-01T08:31:32;8.50;39.20
11989;DHT22;6054;50.966;7.094;2023-03-01T08:34:02;8.50;39.40
11989;DHT22;6054;50.966;7.094;2023-03-01T08:36:30;8.70;39.40
11989;DHT22;6054;50.966;7.094;2023-03-01T08:38:57;8.60;39.50
11989;DHT22;6054;50.966;7.094;2023-03-01T08:41:26;8.60;39.40
11989;DHT22;6054;50.966;7.094;2023-03-01T08:43:53;8.70;39.60
11989;DHT22;6054;50.966;7.094;2023-03-01T08:46:24;8.70;39.00
11989;DHT22;6054;50.966;7.094;2023-03-01T08:48:50;8.80;39.30
11989;DHT22;6054;50.966;7.094;2023-03-01T08:51:19;8.80;39.10
11989;DHT22;6054;50.966;7.094;2023-03-01T08:53:46;8.90;39.40
11989;DHT22;6054;50.966;7.094;2023-03-01T08:56:14;9.00;39.00
11989;DHT22;6054;50.966;7.094;2023-03-01T08:58:45;9.00;39.00
11989;DHT22;6054;50.966;7.094;2023-03-01T09:01:13;9.10;39.00
11989;DHT22;6054;50.966;7.094;2023-03-01T09:03:40;9.10;38.80
11989;DHT22;6054;50.966;7.094;2023-03-01T09:06:08;9.20;38.90
11989;DHT22;6054;50.966;7.094;2023-03-01T09:08:35;9.20;38.50
11989;DHT22;6054;50.966;7.094;2023-03-01T09:11:02;9.30;38.80
11989;DHT22;6054;50.966;7.094;2023-03-01T09:13:29;9.30;38.40
11989;DHT22;6054;50.966;7.094;2023-03-01T09:15:59;9.40;38.50
11989;DHT22;6054;50.966;7.094;2023-03-01T09:18:27;9.50;38.20
11989;DHT22;6054;50.966;7.094;2023-03-01T09:21:00;9.50;38.20
11989;DHT22;6054;50.966;7.094;2023-03-01T09:23:27;9.50;37.90
11989;DHT22;6054;50.966;7.094;2023-03-01T09:25:54;9.50;37.40
11989;DHT22;6054;50.966;7.094;2023-03-01T09:28:21;9.70;37.40
11989;DHT22;6054;50.966;7.094;2023-03-01T09:30:48;9.60;37.50
11989;DHT22;6054;50.966;7.094;2023-03-01T09:33:16;9.60;37.40
11989;DHT22;6054;50.966;7.094;2023-03-01T09:35:43;9.70;37.20
11989;DHT22;6054;50.966;7.094;2023-03-01T09:38:12;9.70;37.50
11989;DHT22;6054;50.966;7.094;2023-03-01T09:40:42;9.80;37.80
11989;DHT22;6054;50.966;7.094;2023-03-01T09:43:17;9.90;37.80
11989;DHT22;6054;50.966;7.094;2023-03-01T09:45:46;10.00;36.70
11989;DHT22;6054;50.966;7.094;2023-03-01T09:48:19;10.00;36.10
11989;DHT22;6054;50.966;7.094;2023-03-01T09:50:47;10.00;35.80
11989;DHT22;6054;50.966;7.094;2023-03-01T09:53:16;10.00;35.90
11989;DHT22;6054;50.966;7.094;2023-03-01T09:55:46;10.30;36.30
11989;DHT22;6054;50.966;7.094;2023-03-01T09:58:29;10.20;36.20
11989;DHT22;6054;50.966;7.094;2023-03-01T10:01:01;10.30;36.20
11989;DHT22;6054;50.966;7.094;2023-03-01T10:03:36;10.30;35.90
11989;DHT22;6054;50.966;7.094;2023-03-01T10:06:10;10.30;35.50
11989;DHT22;6054;50.966;7.094;2023-03-01T10:08:42;10.40;35.70
11989;DHT22;6054;50.966;7.094;2023-03-01T10:11:20;10.50;35.70
11989;DHT22;6054;50.966;7.094;2023-03-01T10:13:53;10.50;35.70
11989;DHT22;6054;50.966;7.094;2023-03-01T10:16:24;10.50;35.50
11989;DHT22;6054;50.966;7.094;2023-03-01T10:18:57;10.50;35.30
11989;DHT22;6054;50.966;7.094;2023-03-01T10:21:27;10.60;35.10
11989;DHT22;6054;50.966;7.094;2023-03-01T10:23:57;10.60;35.00
11989;DHT22;6054;50.966;7.094;2023-03-01T10:26:38;10.60;35.10
11989;DHT22;6054;50.966;7.094;2023-03-01T10:29:08;10.70;35.20
11989;DHT22;6054;50.966;7.094;2023-03-01T10:31:41;10.70;34.90
11989;DHT22;6054;50.966;7.094;2023-03-01T10:34:16;10.70;34.80
11989;DHT22;6054;50.966;7.094;2023-03-01T10:36:47;10.90;35.10
11989;DHT22;6054;50.966;7.094;2023-03-01T10:39:17;10.90;34.80
11989;DHT22;6054;50.966;7.094;2023-03-01T10:41:59;11.00;34.50
11989;DHT22;6054;50.966;7.094;2023-03-01T10:44:42;11.00;34.50
11989;DHT22;6054;50.966;7.094;2023-03-01T10:47:20;11.10;34.90
11989;DHT22;6054;50.966;7.094;2023-03-01T10:49:57;11.20;34.70
11989;DHT22;6054;50.966;7.094;2023-03-01T10:52:30;11.20;34.60
11989;DHT22;6054;50.966;7.094;2023-03-01T10:54:59;11.30;34.40
11989;DHT22;6054;50.966;7.094;2023-03-01T10:57:33;11.40;34.30
11989;DHT22;6054;50.966;7.094;2023-03-01T11:00:23;11.50;34.30
11989;DHT22;6054;50.966;7.094;2023-03-01T11:03:02;11.50;34.20
11989;DHT22;6054;50.966;7.094;2023-03-01T11:05:31;11.60;34.20
11989;DHT22;6054;50.966;7.094;2023-03-01T11:08:00;11.80;33.50
11989;DHT22;6054;50.966;7.094;2023-03-01T11:10:30;11.70;33.80
11989;DHT22;6054;50.966;7.094;2023-03-01T11:13:06;11.70;33.00
11989;DHT22;6054;50.966;7.094;2023-03-01T11:15:33;11.70;33.20
11989;DHT22;6054;50.966;7.094;2023-03-01T11:18:01;11.80;33.50
11989;DHT22;6054;50.966;7.094;2023-03-01T11:20:33;11.90;33.60
11989;DHT22;6054;50.966;7.094;2023-03-01T11:23:03;12.00;33.50
11989;DHT22;6054;50.966;7.094;2023-03-01T11:25:34;12.00;33.00
11989;DHT22;6054;50.966;7.094;2023-03-01T11:28:04;12.10;33.00
11989;DHT22;6054;50.966;7.094;2023-03-01T11:30:34;12.10;32.50
11989;DHT22;6054;50.966;7.094;2023-03-01T11:33:11;12.20;33.30
11989;DHT22;6054;50.966;7.094;2023-03-01T11:35:45;12.40;33.70
11989;DHT22;6054;50.966;7.094;2023-03-01T11:38:20;12.40;33.70
11989;DHT22;6054;50.966;7.094;2023-03-01T11:40:52;12.40;33.10
11989;DHT22;6054;50.966;7.094;2023-03-01T11:43:23;12.50;32.50
11989;DHT22;6054;50.966;7.094;2023-03-01T11:46:27;12.60;31.20
11989;DHT22;6054;50.966;7.094;2023-03-01T11:49:08;12.60;31.50
11989;DHT22;6054;50.966;7.094;2023-03-01T11:51:50;12.70;32.10
11989;DHT22;6054;50.966;7.094;2023-03-01T11:54:26;12.70;31.80
11989;DHT22;6054;50.966;7.094;2023-03-01T11:56:57;12.80;31.10
11989;DHT22;6054;50.966;7.094;2023-03-01T11:59:40;12.80;31.10
11989;DHT22;6054;50.966;7.094;2023-03-01T12:02:27;12.80;30.90
11989;DHT22;6054;50.966;7.094;2023-03-01T12:05:18;12.90;30.80
11989;DHT22;6054;50.966;7.094;2023-03-01T12:07:53;13.00;31.20
11989;DHT22;6054;50.966;7.094;2023-03-01T12:10:26;13.00;31.20
11989;DHT22;6054;50.966;7.094;2023-03-01T12:13:06;13.10;31.00
11989;DHT22;6054;50.966;7.094;2023-03-01T12:15:48;13.10;31.40
11989;DHT22;6054;50.966;7.094;2023-03-01T12:18:47;13.20;31.00
11989;DHT22;6054;50.966;7.094;2023-03-01T12:21:30;13.20;30.60
11989;DHT22;6054;50.966;7.094;2023-03-01T12:24:26;13.30;30.00
11989;DHT22;6054;50.966;7.094;2023-03-01T12:27:09;13.30;30.40
11989;DHT22;6054;50.966;7.094;2023-03-01T12:29:41;13.40;30.60
11989;DHT22;6054;50.966;7.094;2023-03-01T12:32:26;13.60;30.50
11989;DHT22;6054;50.966;7.094;2023-03-01T12:37:54;13.70;30.00
11989;DHT22;6054;50.966;7.094;2023-03-01T12:40:33;13.80;29.40
11989;DHT22;6054;50.966;7.094;2023-03-01T12:43:12;13.80;29.40
11989;DHT22;6054;50.966;7.094;2023-03-01T12:45:54;14.00;29.40
11989;DHT22;6054;50.966;7.094;2023-03-01T12:48:34;14.30;29.30
11989;DHT22;6054;50.966;7.094;2023-03-01T12:51:10;14.20;29.60
11989;DHT22;6054;50.966;7.094;2023-03-01T12:53:42;14.70;29.30
11989;DHT22;6054;50.966;7.094;2023-03-01T12:56:13;14.60;28.90
11989;DHT22;6054;50.966;7.094;2023-03-01T12:58:50;14.80;29.00
11989;DHT22;6054;50.966;7.094;2023-03-01T13:01:26;15.10;29.30
11989;DHT22;6054;50.966;7.094;2023-03-01T13:04:07;15.50;29.70
11989;DHT22;6054;50.966;7.094;2023-03-01T13:06:42;15.70;28.70
11989;DHT22;6054;50.966;7.094;2023-03-01T13:09:18;15.90;28.50
11989;DHT22;6054;50.966;7.094;2023-03-01T13:11:46;16.10;28.70
11989;DHT22;6054;50.966;7.094;2023-03-01T13:14:36;16.20;28.30
11989;DHT22;6054;50.966;7.094;2023-03-01T13:17:03;16.30;27.90
11989;DHT22;6054;50.966;7.094;2023-03-01T13:19:30;16.30;27.30
11989;DHT22;6054;50.966;7.094;2023-03-01T13:21:58;16.30;27.30
11989;DHT22;6054;50.966;7.094;2023-03-01T13:24:27;16.30;27.50
11989;DHT22;6054;50.966;7.094;2023-03-01T13:27:22;16.30;27.40
11989;DHT22;6054;50.966;7.094;2023-03-01T13:29:51;16.20;27.50
11989;DHT22;6054;50.966;7.094;2023-03-01T13:32:20;16.20;27.60
11989;DHT22;6054;50.966;7.094;2023-03-01T13:34:52;16.10;27.40
11989;DHT22;6054;50.966;7.094;2023-03-01T13:37:25;16.10;27.70
11989;DHT22;6054;50.966;7.094;2023-03-01T13:39:55;16.30;27.80
11989;DHT22;6054;50.966;7.094;2023-03-01T13:42:37;16.20;27.70
11989;DHT22;6054;50.966;7.094;2023-03-01T13:45:14;16.30;27.50
11989;DHT22;6054;50.966;7.094;2023-03-01T13:47:42;16.40;27.60
11989;DHT22;6054;50.966;7.094;2023-03-01T13:50:18;16.70;27.30
11989;DHT22;6054;50.966;7.094;2023-03-01T13:52:48;16.50;27.40
11989;DHT22;6054;50.966;7.094;2023-03-01T13:55:18;16.50;27.10
11989;DHT22;6054;50.966;7.094;2023-03-01T13:57:49;16.50;27.40
11989;DHT22;6054;50.966;7.094;2023-03-01T14:00:28;16.70;27.70
11989;DHT22;6054;50.966;7.094;2023-03-01T14:03:02;16.90;27.40
11989;DHT22;6054;50.966;7.094;2023-03-01T14:05:30;17.10;27.40
11989;DHT22;6054;50.966;7.094;2023-03-01T14:07:56;17.30;26.90
11989;DHT22;6054;50.966;7.094;2023-03-01T14:10:31;17.50;26.70
11989;DHT22;6054;50.966;7.094;2023-03-01T14:13:08;17.70;26.70
11989;DHT22;6054;50.966;7.094;2023-03-01T14:15:44;17.80;26.40
11989;DHT22;6054;50.966;7.094;2023-03-01T14:18:19;17.90;26.40
11989;DHT22;6054;50.966;7.094;2023-03-01T14:20:49;17.90;26.30
11989;DHT22;6054;50.966;7.094;2023-03-01T14:23:19;17.90;25.90
11989;DHT22;6054;50.966;7.094;2023-03-01T14:25:48;17.80;25.70
11989;DHT22;6054;50.966;7.094;2023-03-01T14:28:19;17.70;25.60
11989;DHT22;6054;50.966;7.094;2023-03-01T14:30:48;17.60;25.70
11989;DHT22;6054;50.966;7.094;2023-03-01T14:33:21;17.50;25.90
11989;DHT22;6054;50.966;7.094;2023-03-01T14:35:54;17.40;26.30
11989;DHT22;6054;50.966;7.094;2023-03-01T14:38:22;17.30;26.60
11989;DHT22;6054;50.966;7.094;2023-03-01T14:40:52;17.40;27.00
11989;DHT22;6054;50.966;7.094;2023-03-01T14:43:22;17.30;27.30
11989;DHT22;6054;50.966;7.094;2023-03-01T14:45:51;17.20;27.50
11989;DHT22;6054;50.966;7.094;2023-03-01T14:48:18;17.20;27.60
11989;DHT22;6054;50.966;7.094;2023-03-01T14:50:46;17.10;27.80
11989;DHT22;6054;50.966;7.094;2023-03-01T14:53:17;17.10;27.90
11989;DHT22;6054;50.966;7.094;2023-03-01T14:55:46;17.10;27.80
11989;DHT22;6054;50.966;7.094;2023-03-01T14:58:18;17.00;27.90
11989;DHT22;6054;50.966;7.094;2023-03-01T15:00:49;16.90;28.00
11989;DHT22;6054;50.966;7.094;2023-03-01T15:03:24;16.80;28.10
11989;DHT22;6054;50.966;7.094;2023-03-01T15:05:51;17.00;28.40
11989;DHT22;6054;50.966;7.094;2023-03-01T15:08:21;16.90;28.30
11989;DHT22;6054;50.966;7.094;2023-03-01T15:10:58;17.00;28.40
11989;DHT22;6054;50.966;7.094;2023-03-01T15:13:28;17.00;28.20
11989;DHT22;6054;50.966;7.094;2023-03-01T15:16:04;17.00;28.20
11989;DHT22;6054;50.966;7.094;2023-03-01T15:18:32;17.00;28.40
11989;DHT22;6054;50.966;7.094;2023-03-01T15:21:06;17.00;27.90
11989;DHT22;6054;50.966;7.094;2023-03-01T15:23:34;17.00;28.20
11989;DHT22;6054;50.966;7.094;2023-03-01T15:26:02;17.10;28.10
11989;DHT22;6054;50.966;7.094;2023-03-01T15:28:31;17.20;28.00
11989;DHT22;6054;50.966;7.094;2023-03-01T15:31:03;17.20;28.00
11989;DHT22;6054;50.966;7.094;2023-03-01T15:33:33;17.20;27.80
11989;DHT22;6054;50.966;7.094;2023-03-01T15:36:01;17.10;27.80
11989;DHT22;6054;50.966;7.094;2023-03-01T15:38:32;17.00;27.80
11989;DHT22;6054;50.966;7.094;2023-03-01T15:41:00;16.90;27.90
11989;DHT22;6054;50.966;7.094;2023-03-01T15:43:38;16.80;28.00
11989;DHT22;6054;50.966;7.094;2023-03-01T15:46:19;16.70;28.10
11989;DHT22;6054;50.966;7.094;2023-03-01T15:48:47;16.60;27.90
11989;DHT22;6054;50.966;7.094;2023-03-01T15:51:16;16.50;27.80
11989;DHT22;6054;50.966;7.094;2023-03-01T15:53:47;16.40;27.60
11989;DHT22;6054;50.966;7.094;2023-03-01T15:56:15;16.30;27.80
11989;DHT22;6054;50.966;7.094;2023-03-01T15:58:42;16.20;27.80
11989;DHT22;6054;50.966;7.094;2023-03-01T16:01:12;16.10;27.90
11989;DHT22;6054;50.966;7.094;2023-03-01T16:03:39;16.10;28.10
11989;DHT22;6054;50.966;7.094;2023-03-01T16:06:07;16.00;28.00
11989;DHT22;6054;50.966;7.094;2023-03-01T16:08:34;16.00;28.50
11989;DHT22;6054;50.966;7.094;2023-03-01T16:11:02;16.00;28.20
11989;DHT22;6054;50.966;7.094;2023-03-01T16:13:31;16.00;28.30
11989;DHT22;6054;50.966;7.094;2023-03-01T16:15:58;15.90;28.10
11989;DHT22;6054;50.966;7.094;2023-03-01T16:18:26;15.90;28.10